createdAt,value
2016-12-17T00:00:26.891Z,44.23
2016-12-17T00:01:26.916Z,44.13
2016-12-17T00:02:27.245Z,44.13
2016-12-17T00:03:27.277Z,44.52
2016-12-17T00:04:27.301Z,44.23
2016-12-17T00:05:27.029Z,44.04
2016-12-17T00:06:27.051Z,44.42
2016-12-17T00:07:27.384Z,44.42
2016-12-17T00:08:27.425Z,44.42
2016-12-17T00:09:27.440Z,44.52
2016-12-17T00:10:27.167Z,44.52
2016-12-17T00:11:27.195Z,44.42
2016-12-17T00:12:27.528Z,44.42
2016-12-17T00:13:27.244Z,44.42
2016-12-17T00:14:27.582Z,44.52
2016-12-17T00:15:27.298Z,44.42
2016-12-17T00:16:27.635Z,44.42
2016-12-17T00:17:27.365Z,44.62
2016-12-17T00:18:27.676Z,44.42
2016-12-17T00:19:27.409Z,45
2016-12-17T00:20:27.446Z,44.71
2016-12-17T00:21:27.483Z,44.9
2016-12-17T00:22:27.495Z,44.71
2016-12-17T00:23:27.840Z,44.81
2016-12-17T00:24:27.547Z,44.62
2016-12-17T00:25:27.574Z,44.81
2016-12-17T00:26:27.915Z,44.71
2016-12-17T00:27:27.947Z,44.9
2016-12-17T00:28:27.656Z,44.81
2016-12-17T00:29:27.988Z,44.9
2016-12-17T00:30:27.713Z,44.81
2016-12-17T00:31:27.746Z,44.62
2016-12-17T00:32:27.777Z,44.81
2016-12-17T00:33:27.799Z,44.81
2016-12-17T00:34:27.832Z,44.81
2016-12-17T00:35:28.169Z,44.79
2016-12-17T00:36:28.186Z,44.71
2016-12-17T00:37:27.915Z,44.71
2016-12-17T00:38:28.244Z,44.81
2016-12-17T00:39:28.269Z,44.81
2016-12-17T00:40:28.293Z,44.69
2016-12-17T00:41:28.025Z,44.79
2016-12-17T00:42:28.354Z,44.79
2016-12-17T00:43:28.086Z,44.89
2016-12-17T00:44:28.399Z,44.79
2016-12-17T00:45:28.144Z,44.81
2016-12-17T00:46:28.153Z,44.79
2016-12-17T00:47:28.190Z,44.59
2016-12-17T00:48:28.211Z,44.81
2016-12-17T00:49:28.544Z,44.59
2016-12-17T00:50:28.585Z,44.69
2016-12-17T00:51:28.614Z,44.69
2016-12-17T00:52:28.627Z,44.9
2016-12-17T00:53:28.659Z,44.69
2016-12-17T00:54:28.376Z,44.89
2016-12-17T00:55:28.416Z,44.69
2016-12-17T00:56:28.733Z,44.69
2016-12-17T00:57:28.462Z,44.69
2016-12-17T00:58:28.790Z,44.69
2016-12-17T00:59:28.835Z,44.69
2016-12-17T01:00:28.548Z,44.59
2016-12-17T01:01:28.576Z,44.79
2016-12-17T01:02:28.897Z,44.79
2016-12-17T01:03:28.634Z,44.79
2016-12-17T01:04:28.955Z,44.69
2016-12-17T01:05:28.987Z,44.69
2016-12-17T01:06:28.748Z,44.79
2016-12-17T01:07:28.732Z,44.79
2016-12-17T01:08:29.066Z,44.69
2016-12-17T01:09:28.794Z,44.69
2016-12-17T01:10:29.119Z,44.79
2016-12-17T01:11:28.844Z,44.89
2016-12-17T01:12:28.873Z,44.69
2016-12-17T01:13:29.205Z,44.69
2016-12-17T01:14:28.926Z,44.79
2016-12-17T01:15:28.951Z,44.79
2016-12-17T01:16:28.975Z,44.79
2016-12-17T01:17:29.006Z,44.79
2016-12-17T01:18:29.036Z,44.89
2016-12-17T01:19:29.365Z,44.79
2016-12-17T01:20:29.086Z,44.69
2016-12-17T01:21:29.418Z,44.69
2016-12-17T01:22:29.173Z,44.69
2016-12-17T01:23:29.475Z,44.89
2016-12-17T01:24:29.508Z,44.89
2016-12-17T01:25:29.537Z,44.79
2016-12-17T01:26:29.253Z,44.79
2016-12-17T01:27:29.587Z,44.69
2016-12-17T01:28:29.307Z,44.4
2016-12-17T01:29:29.647Z,44.69
2016-12-17T01:30:29.671Z,44.49
2016-12-17T01:31:29.696Z,44.49
2016-12-17T01:32:29.417Z,44.49
2016-12-17T01:33:29.766Z,44.59
2016-12-17T01:34:29.474Z,44.49
2016-12-17T01:35:29.811Z,44.69
2016-12-17T01:36:29.533Z,44.59
2016-12-17T01:37:29.869Z,44.69
2016-12-17T01:38:29.586Z,44.4
2016-12-17T01:39:29.602Z,44.4
2016-12-17T01:40:29.634Z,44.59
2016-12-17T01:41:29.663Z,44.79
2016-12-17T01:42:29.997Z,44.59
2016-12-17T01:43:30.025Z,44.49
2016-12-17T01:44:29.738Z,44.49
2016-12-17T01:45:30.087Z,44.89
2016-12-17T01:46:29.799Z,44.4
2016-12-17T01:47:29.831Z,44.69
2016-12-17T01:48:29.856Z,44.49
2016-12-17T01:49:30.189Z,44.67
2016-12-17T01:50:29.909Z,44.49
2016-12-17T01:51:30.246Z,44.67
2016-12-17T01:52:29.966Z,44.67
2016-12-17T01:53:30.291Z,44.59
2016-12-17T01:54:30.330Z,44.4
2016-12-17T01:55:30.042Z,44.4
2016-12-17T01:56:30.377Z,44.59
2016-12-17T01:57:30.103Z,44.38
2016-12-17T01:58:30.123Z,44.59
2016-12-17T01:59:30.160Z,44.59
2016-12-17T02:00:30.180Z,44.38
2016-12-17T02:01:30.509Z,44.48
2016-12-17T02:02:30.542Z,44.69
2016-12-17T02:03:30.566Z,44.67
2016-12-17T02:04:30.595Z,44.57
2016-12-17T02:05:30.318Z,44.67
2016-12-17T02:06:30.341Z,44.48
2016-12-17T02:07:30.681Z,44.59
2016-12-17T02:08:30.707Z,44.57
2016-12-17T02:09:30.427Z,44.67
2016-12-17T02:10:30.460Z,44.48
2016-12-17T02:11:30.492Z,44.48
2016-12-17T02:12:30.813Z,44.48
2016-12-17T02:13:30.843Z,44.67
2016-12-17T02:14:30.866Z,44.19
2016-12-17T02:15:30.599Z,44.48
2016-12-17T02:16:30.616Z,44.76
2016-12-17T02:17:30.952Z,44.76
2016-12-17T02:18:30.670Z,44.76
2016-12-17T02:19:30.702Z,44.48
2016-12-17T02:20:30.726Z,44.48
2016-12-17T02:21:30.757Z,44.67
2016-12-17T02:22:31.088Z,44.48
2016-12-17T02:23:31.113Z,44.48
2016-12-17T02:24:30.834Z,44.48
2016-12-17T02:25:30.874Z,44.57
2016-12-17T02:26:30.891Z,44.48
2016-12-17T02:27:30.912Z,44.48
2016-12-17T02:28:31.249Z,44.48
2016-12-17T02:29:30.969Z,44.48
2016-12-17T02:30:31.302Z,44.48
2016-12-17T02:31:31.331Z,44.67
2016-12-17T02:32:31.056Z,44.48
2016-12-17T02:33:31.398Z,44.48
2016-12-17T02:34:31.413Z,44.48
2016-12-17T02:35:31.139Z,44.57
2016-12-17T02:36:31.153Z,44.57
2016-12-17T02:37:31.487Z,44.48
2016-12-17T02:38:31.511Z,44.48
2016-12-17T02:39:31.240Z,44.57
2016-12-17T02:40:31.264Z,44.48
2016-12-17T02:41:31.615Z,44.48
2016-12-17T02:42:31.326Z,44.48
2016-12-17T02:43:31.667Z,44.57
2016-12-17T02:44:31.679Z,44.48
2016-12-17T02:45:31.713Z,44.48
2016-12-17T02:46:31.741Z,44.67
2016-12-17T02:47:31.767Z,44.48
2016-12-17T02:48:31.782Z,44.48
2016-12-17T02:49:31.807Z,44.48
2016-12-17T02:50:31.535Z,44.67
2016-12-17T02:51:31.580Z,44.48
2016-12-17T02:52:31.598Z,44.57
2016-12-17T02:53:31.953Z,44.48
2016-12-17T02:54:31.954Z,44.67
2016-12-17T02:55:31.695Z,44.57
2016-12-17T02:56:32.000Z,44.67
2016-12-17T02:57:31.748Z,44.67
2016-12-17T02:58:31.761Z,44.67
2016-12-17T02:59:31.786Z,44.76
2016-12-17T03:00:32.107Z,44.76
2016-12-17T03:01:31.847Z,44.67
2016-12-17T03:02:31.868Z,44.67
2016-12-17T03:03:31.889Z,44.65
2016-12-17T03:04:31.919Z,44.48
2016-12-17T03:05:31.947Z,44.67
2016-12-17T03:06:31.979Z,44.67
2016-12-17T03:07:32.308Z,44.48
2016-12-17T03:08:32.329Z,44.19
2016-12-17T03:09:32.057Z,44.67
2016-12-17T03:10:32.387Z,44.38
2016-12-17T03:11:32.407Z,44.67
2016-12-17T03:12:32.140Z,44.76
2016-12-17T03:13:32.160Z,44.76
2016-12-17T03:14:32.193Z,44.45
2016-12-17T03:15:32.529Z,44.48
2016-12-17T03:16:32.551Z,44.57
2016-12-17T03:17:32.601Z,44.48
2016-12-17T03:18:32.296Z,44.48
2016-12-17T03:19:32.330Z,44.48
2016-12-17T03:20:32.653Z,44.48
2016-12-17T03:21:32.370Z,44.48
2016-12-17T03:22:32.411Z,44.48
2016-12-17T03:23:32.435Z,44.67
2016-12-17T03:24:32.464Z,44.67
2016-12-17T03:25:32.497Z,44.65
2016-12-17T03:26:32.518Z,44.57
2016-12-17T03:27:32.854Z,44.57
2016-12-17T03:28:32.871Z,44.35
2016-12-17T03:29:32.912Z,44.48
2016-12-17T03:30:32.645Z,44.67
2016-12-17T03:31:32.649Z,44.48
2016-12-17T03:32:32.678Z,44.57
2016-12-17T03:33:32.722Z,44.86
2016-12-17T03:34:33.039Z,44.76
2016-12-17T03:35:32.764Z,44.38
2016-12-17T03:36:33.081Z,44.55
2016-12-17T03:37:32.822Z,44.57
2016-12-17T03:38:32.840Z,44.67
2016-12-17T03:39:32.876Z,44.48
2016-12-17T03:40:33.204Z,44.76
2016-12-17T03:41:33.233Z,44.55
2016-12-17T03:42:33.250Z,44.38
2016-12-17T03:43:32.974Z,44.65
2016-12-17T03:44:33.003Z,44.55
2016-12-17T03:45:33.348Z,44.55
2016-12-17T03:46:33.365Z,44.65
2016-12-17T03:47:33.085Z,44.65
2016-12-17T03:48:33.414Z,44.74
2016-12-17T03:49:33.440Z,44.67
2016-12-17T03:50:33.168Z,44.65
2016-12-17T03:51:33.193Z,44.76
2016-12-17T03:52:33.218Z,44.65
2016-12-17T03:53:33.254Z,44.65
2016-12-17T03:54:33.575Z,44.55
2016-12-17T03:55:33.303Z,44.74
2016-12-17T03:56:33.329Z,44.74
2016-12-17T03:57:33.357Z,44.65
2016-12-17T03:58:33.382Z,44.67
2016-12-17T03:59:33.720Z,44.65
2016-12-17T04:00:33.440Z,44.74
2016-12-17T04:01:33.770Z,44.65
2016-12-17T04:02:33.793Z,44.38
2016-12-17T04:03:33.525Z,44.67
2016-12-17T04:04:33.854Z,44.65
2016-12-17T04:05:33.583Z,44.86
2016-12-17T04:06:33.900Z,44.67
2016-12-17T04:07:33.633Z,44.65
2016-12-17T04:08:33.959Z,44.74
2016-12-17T04:09:33.986Z,44.74
2016-12-17T04:10:34.008Z,44.74
2016-12-17T04:11:33.745Z,44.65
2016-12-17T04:12:34.073Z,44.74
2016-12-17T04:13:33.789Z,44.84
2016-12-17T04:14:33.809Z,44.84
2016-12-17T04:15:34.151Z,44.74
2016-12-17T04:16:34.175Z,44.84
2016-12-17T04:17:33.893Z,44.74
2016-12-17T04:18:33.923Z,44.74
2016-12-17T04:19:34.247Z,44.74
2016-12-17T04:20:34.283Z,44.74
2016-12-17T04:21:34.312Z,44.84
2016-12-17T04:22:34.336Z,44.84
2016-12-17T04:23:34.361Z,44.74
2016-12-17T04:24:34.082Z,44.84
2016-12-17T04:25:34.420Z,44.84
2016-12-17T04:26:34.447Z,44.84
2016-12-17T04:27:34.476Z,44.74
2016-12-17T04:28:34.193Z,44.74
2016-12-17T04:29:34.221Z,44.74
2016-12-17T04:30:34.256Z,44.74
2016-12-17T04:31:34.275Z,44.45
2016-12-17T04:32:34.600Z,44.65
2016-12-17T04:33:34.637Z,44.65
2016-12-17T04:34:34.661Z,44.74
2016-12-17T04:35:34.703Z,44.74
2016-12-17T04:36:34.719Z,44.65
2016-12-17T04:37:34.444Z,44.84
2016-12-17T04:38:34.764Z,44.84
2016-12-17T04:39:34.493Z,44.74
2016-12-17T04:40:34.814Z,44.65
2016-12-17T04:41:34.857Z,44.74
2016-12-17T04:42:34.572Z,44.74
2016-12-17T04:43:34.900Z,44.84
2016-12-17T04:44:34.933Z,44.65
2016-12-17T04:45:34.957Z,44.65
2016-12-17T04:46:34.966Z,44.65
2016-12-17T04:47:34.716Z,44.74
2016-12-17T04:48:35.028Z,44.65
2016-12-17T04:49:35.073Z,44.84
2016-12-17T04:50:35.093Z,44.84
2016-12-17T04:51:34.822Z,44.74
2016-12-17T04:52:35.147Z,44.65
2016-12-17T04:53:34.872Z,44.84
2016-12-17T04:54:34.898Z,44.65
2016-12-17T04:55:34.922Z,44.84
2016-12-17T04:56:35.250Z,44.74
2016-12-17T04:57:35.283Z,44.74
2016-12-17T04:58:35.308Z,44.65
2016-12-17T04:59:35.041Z,44.74
2016-12-17T05:00:35.364Z,44.74
2016-12-17T05:01:35.394Z,44.74
2016-12-17T05:02:35.411Z,44.74
2016-12-17T05:03:35.140Z,44.74
2016-12-17T05:04:35.460Z,44.74
2016-12-17T05:05:35.494Z,44.74
2016-12-17T05:06:35.526Z,44.65
2016-12-17T05:07:35.254Z,44.65
2016-12-17T05:08:35.579Z,44.65
2016-12-17T05:09:35.308Z,44.84
2016-12-17T05:10:35.328Z,44.74
2016-12-17T05:11:35.665Z,44.74
2016-12-17T05:12:35.379Z,44.84
2016-12-17T05:13:35.411Z,44.74
2016-12-17T05:14:35.431Z,44.84
2016-12-17T05:15:35.757Z,44.74
2016-12-17T05:16:35.793Z,44.74
2016-12-17T05:17:35.513Z,44.74
2016-12-17T05:18:35.850Z,44.55
2016-12-17T05:19:35.603Z,44.55
2016-12-17T05:20:35.595Z,44.93
2016-12-17T05:21:35.941Z,44.84
2016-12-17T05:22:35.646Z,44.65
2016-12-17T05:23:35.982Z,44.84
2016-12-17T05:24:36.014Z,44.65
2016-12-17T05:25:36.036Z,44.74
2016-12-17T05:26:35.752Z,44.74
2016-12-17T05:27:36.094Z,44.65
2016-12-17T05:28:36.102Z,44.84
2016-12-17T05:29:35.835Z,44.65
2016-12-17T05:30:36.160Z,44.74
2016-12-17T05:31:36.193Z,44.55
2016-12-17T05:32:35.913Z,44.74
2016-12-17T05:33:36.250Z,44.65
2016-12-17T05:34:36.279Z,44.74
2016-12-17T05:35:36.303Z,44.65
2016-12-17T05:36:36.032Z,44.74
2016-12-17T05:37:36.365Z,44.74
2016-12-17T05:38:36.077Z,44.74
2016-12-17T05:39:36.106Z,44.65
2016-12-17T05:40:36.139Z,44.74
2016-12-17T05:41:36.160Z,44.65
2016-12-17T05:42:36.496Z,44.55
2016-12-17T05:43:36.217Z,44.86
2016-12-17T05:44:36.550Z,44.74
2016-12-17T05:45:36.275Z,44.45
2016-12-17T05:46:36.596Z,44.48
2016-12-17T05:47:36.329Z,44.38
2016-12-17T05:48:36.350Z,44.57
2016-12-17T05:49:36.689Z,44.28
2016-12-17T05:50:36.706Z,44.19
2016-12-17T05:51:36.735Z,44.19
2016-12-17T05:52:36.760Z,44.28
2016-12-17T05:53:36.792Z,44.09
2016-12-17T05:54:36.510Z,44.09
2016-12-17T05:55:36.535Z,44.48
2016-12-17T05:56:36.560Z,44.48
2016-12-17T05:57:36.589Z,44.28
2016-12-17T05:58:36.925Z,44.19
2016-12-17T05:59:36.646Z,44.19
2016-12-17T06:00:36.974Z,44.38
2016-12-17T06:01:37.015Z,44.57
2016-12-17T06:02:36.728Z,44.28
2016-12-17T06:03:37.064Z,44.19
2016-12-17T06:04:36.773Z,43.8
2016-12-17T06:05:37.110Z,43.8
2016-12-17T06:06:37.143Z,43.99
2016-12-17T06:07:36.860Z,43.71
2016-12-17T06:08:37.188Z,43.71
2016-12-17T06:09:36.918Z,43.61
2016-12-17T06:10:37.254Z,43.71
2016-12-17T06:11:37.275Z,44.02
2016-12-17T06:12:36.992Z,43.71
2016-12-17T06:13:37.016Z,43.61
2016-12-17T06:14:37.049Z,43.61
2016-12-17T06:15:37.078Z,43.63
2016-12-17T06:16:37.106Z,43.82
2016-12-17T06:17:37.438Z,43.63
2016-12-17T06:18:37.464Z,43.99
2016-12-17T06:19:37.193Z,43.99
2016-12-17T06:20:37.518Z,43.92
2016-12-17T06:21:37.239Z,43.82
2016-12-17T06:22:37.267Z,44.11
2016-12-17T06:23:37.308Z,43.82
2016-12-17T06:24:37.621Z,43.92
2016-12-17T06:25:37.666Z,43.82
2016-12-17T06:26:37.378Z,44.11
2016-12-17T06:27:37.406Z,43.82
2016-12-17T06:28:37.431Z,43.73
2016-12-17T06:29:37.473Z,43.44
2016-12-17T06:30:37.485Z,43.34
2016-12-17T06:31:37.510Z,43.54
2016-12-17T06:32:37.535Z,43.63
2016-12-17T06:33:37.571Z,43.63
2016-12-17T06:34:37.592Z,43.63
2016-12-17T06:35:37.625Z,43.54
2016-12-17T06:36:37.946Z,43.63
2016-12-17T06:37:37.683Z,43.54
2016-12-17T06:38:37.699Z,43.63
2016-12-17T06:39:37.736Z,43.54
2016-12-17T06:40:37.761Z,43.92
2016-12-17T06:41:38.101Z,43.73
2016-12-17T06:42:37.815Z,43.73
2016-12-17T06:43:37.839Z,43.34
2016-12-17T06:44:38.172Z,43.24
2016-12-17T06:45:37.901Z,43.34
2016-12-17T06:46:38.222Z,43.44
2016-12-17T06:47:38.254Z,43.15
2016-12-17T06:48:38.279Z,43.05
2016-12-17T06:49:38.312Z,43.24
2016-12-17T06:50:38.332Z,43.34
2016-12-17T06:51:38.054Z,43.15
2016-12-17T06:52:38.083Z,43.17
2016-12-17T06:53:38.118Z,42.86
2016-12-17T06:54:38.131Z,43.15
2016-12-17T06:55:38.168Z,43.15
2016-12-17T06:56:38.497Z,43.34
2016-12-17T06:57:38.226Z,43.05
2016-12-17T06:58:38.553Z,43.15
2016-12-17T06:59:38.580Z,43.24
2016-12-17T07:00:38.609Z,42.86
2016-12-17T07:01:38.629Z,43.05
2016-12-17T07:02:38.658Z,43.24
2016-12-17T07:03:38.699Z,43.27
2016-12-17T07:04:38.707Z,43.05
2016-12-17T07:05:38.436Z,43.24
2016-12-17T07:06:38.456Z,43.15
2016-12-17T07:07:38.493Z,43.27
2016-12-17T07:08:38.514Z,43.05
2016-12-17T07:09:38.863Z,42.97
2016-12-17T07:10:38.572Z,42.88
2016-12-17T07:11:38.916Z,42.97
2016-12-17T07:12:38.926Z,42.97
2016-12-17T07:13:38.651Z,42.97
2016-12-17T07:14:38.983Z,42.97
2016-12-17T07:15:39.020Z,42.97
2016-12-17T07:16:38.733Z,43.17
2016-12-17T07:17:39.069Z,43.17
2016-12-17T07:18:39.091Z,43.17
2016-12-17T07:19:38.817Z,43.07
2016-12-17T07:20:38.843Z,42.57
2016-12-17T07:21:39.178Z,42.59
2016-12-17T07:22:39.200Z,42.59
2016-12-17T07:23:38.930Z,43.27
2016-12-17T07:24:38.951Z,42.69
2016-12-17T07:25:39.287Z,42.69
2016-12-17T07:26:39.009Z,42.97
2016-12-17T07:27:39.045Z,43.46
2016-12-17T07:28:39.058Z,43.46
2016-12-17T07:29:39.087Z,42.88
2016-12-17T07:30:39.115Z,42.79
2016-12-17T07:31:39.152Z,42.97
2016-12-17T07:32:39.169Z,42.97
2016-12-17T07:33:39.505Z,42.97
2016-12-17T07:34:39.223Z,42.88
2016-12-17T07:35:39.255Z,42.88
2016-12-17T07:36:39.284Z,43.07
2016-12-17T07:37:39.313Z,43.07
2016-12-17T07:38:39.329Z,43.27
2016-12-17T07:39:39.370Z,43.27
2016-12-17T07:40:39.691Z,43.17
2016-12-17T07:41:39.728Z,43.17
2016-12-17T07:42:39.445Z,43.17
2016-12-17T07:43:39.469Z,43.17
2016-12-17T07:44:39.798Z,43.37
2016-12-17T07:45:39.530Z,43.17
2016-12-17T07:46:39.553Z,43.17
2016-12-17T07:47:39.595Z,43.17
2016-12-17T07:48:39.913Z,43.17
2016-12-17T07:49:39.942Z,43.27
2016-12-17T07:50:39.659Z,43.27
2016-12-17T07:51:39.999Z,43.17
2016-12-17T07:52:40.012Z,43.17
2016-12-17T07:53:39.741Z,42.97
2016-12-17T07:54:40.080Z,43.27
2016-12-17T07:55:39.790Z,42.4
2016-12-17T07:56:39.823Z,42.97
2016-12-17T07:57:40.160Z,43.27
2016-12-17T07:58:39.874Z,43.17
2016-12-17T07:59:39.922Z,42.79
2016-12-17T08:00:40.234Z,42.88
2016-12-17T08:01:39.963Z,42.86
2016-12-17T08:02:40.291Z,42.88
2016-12-17T08:03:40.024Z,42.88
2016-12-17T08:04:40.345Z,43.17
2016-12-17T08:05:40.373Z,43.07
2016-12-17T08:06:40.103Z,42.97
2016-12-17T08:07:40.136Z,43.17
2016-12-17T08:08:40.151Z,43.05
2016-12-17T08:09:40.181Z,42.97
2016-12-17T08:10:40.205Z,42.88
2016-12-17T08:11:40.547Z,42.96
2016-12-17T08:12:40.564Z,42.76
2016-12-17T08:13:40.300Z,42.79
2016-12-17T08:14:40.306Z,42.86
2016-12-17T08:15:40.644Z,42.86
2016-12-17T08:16:40.364Z,42.86
2016-12-17T08:17:40.411Z,43.07
2016-12-17T08:18:40.716Z,42.86
2016-12-17T08:19:40.459Z,43.05
2016-12-17T08:20:40.501Z,42.86
2016-12-17T08:21:40.810Z,43.07
2016-12-17T08:22:40.825Z,43.44
2016-12-17T08:23:40.868Z,42.67
2016-12-17T08:24:40.882Z,42.96
2016-12-17T08:25:40.912Z,42.76
2016-12-17T08:26:40.942Z,42.96
2016-12-17T08:27:40.671Z,43.05
2016-12-17T08:28:41.004Z,42.96
2016-12-17T08:29:41.029Z,42.76
2016-12-17T08:30:41.053Z,43.05
2016-12-17T08:31:40.784Z,42.86
2016-12-17T08:32:40.794Z,43.05
2016-12-17T08:33:40.834Z,43.05
2016-12-17T08:34:41.155Z,43.05
2016-12-17T08:35:41.188Z,42.97
2016-12-17T08:36:40.911Z,43.05
2016-12-17T08:37:41.237Z,43.05
2016-12-17T08:38:40.965Z,43.05
2016-12-17T08:39:41.295Z,42.96
2016-12-17T08:40:41.017Z,43.15
2016-12-17T08:41:41.044Z,42.67
2016-12-17T08:42:41.078Z,43.15
2016-12-17T08:43:41.110Z,42.47
2016-12-17T08:44:41.428Z,42.57
2016-12-17T08:45:41.164Z,42.96
2016-12-17T08:46:41.183Z,42.57
2016-12-17T08:47:41.511Z,43.05
2016-12-17T08:48:41.238Z,42.96
2016-12-17T08:49:41.575Z,43.34
2016-12-17T08:50:41.596Z,43.34
2016-12-17T08:51:41.629Z,43.15
2016-12-17T08:52:41.346Z,43.24
2016-12-17T08:53:41.688Z,43.44
2016-12-17T08:54:41.405Z,43.34
2016-12-17T08:55:41.738Z,43.34
2016-12-17T08:56:41.764Z,43.24
2016-12-17T08:57:41.488Z,43.73
2016-12-17T08:58:41.518Z,43.73
2016-12-17T08:59:41.548Z,43.54
2016-12-17T09:00:41.864Z,43.73
2016-12-17T09:01:41.904Z,43.82
2016-12-17T09:02:41.923Z,43.34
2016-12-17T09:03:41.955Z,43.63
2016-12-17T09:04:41.672Z,43.82
2016-12-17T09:05:42.002Z,43.54
2016-12-17T09:06:41.732Z,43.54
2016-12-17T09:07:41.777Z,43.73
2016-12-17T09:08:41.802Z,43.54
2016-12-17T09:09:42.131Z,43.73
2016-12-17T09:10:42.158Z,43.63
2016-12-17T09:11:42.181Z,43.54
2016-12-17T09:12:42.212Z,43.73
2016-12-17T09:13:42.250Z,43.82
2016-12-17T09:14:42.271Z,44.11
2016-12-17T09:15:41.989Z,44.21
2016-12-17T09:16:42.007Z,43.82
2016-12-17T09:17:42.045Z,43.63
2016-12-17T09:18:42.373Z,43.73
2016-12-17T09:19:42.406Z,43.73
2016-12-17T09:20:42.146Z,43.73
2016-12-17T09:21:42.155Z,43.34
2016-12-17T09:22:42.172Z,43.54
2016-12-17T09:23:42.527Z,43.82
2016-12-17T09:24:42.238Z,43.34
2016-12-17T09:25:42.278Z,43.82
2016-12-17T09:26:42.287Z,43.34
2016-12-17T09:27:42.613Z,43.63
2016-12-17T09:28:42.331Z,43.73
2016-12-17T09:29:42.372Z,43.44
2016-12-17T09:30:42.689Z,43.54
2016-12-17T09:31:42.415Z,43.73
2016-12-17T09:32:42.442Z,43.82
2016-12-17T09:33:42.476Z,43.92
2016-12-17T09:34:42.496Z,43.73
2016-12-17T09:35:42.569Z,44.11
2016-12-17T09:36:42.863Z,44.11
2016-12-17T09:37:42.879Z,43.82
2016-12-17T09:38:42.908Z,43.82
2016-12-17T09:39:42.956Z,43.82
2016-12-17T09:40:42.972Z,43.63
2016-12-17T09:41:42.995Z,44.02
2016-12-17T09:42:42.719Z,43.82
2016-12-17T09:43:43.049Z,44.11
2016-12-17T09:44:43.072Z,43.92
2016-12-17T09:45:43.106Z,43.82
2016-12-17T09:46:42.828Z,43.73
2016-12-17T09:47:42.856Z,43.73
2016-12-17T09:48:42.881Z,43.73
2016-12-17T09:49:42.910Z,43.82
2016-12-17T09:50:43.241Z,43.82
2016-12-17T09:51:42.976Z,43.9
2016-12-17T09:52:43.297Z,44.49
2016-12-17T09:53:43.327Z,44.19
2016-12-17T09:54:43.048Z,44.21
2016-12-17T09:55:43.407Z,44.11
2016-12-17T09:56:43.103Z,44.57
2016-12-17T09:57:43.447Z,44.31
2016-12-17T09:58:43.157Z,44.4
2016-12-17T09:59:43.486Z,44.4
2016-12-17T10:00:43.205Z,44.48
2016-12-17T10:01:43.244Z,44.31
2016-12-17T10:02:43.599Z,44.38
2016-12-17T10:03:43.597Z,44.48
2016-12-17T10:04:43.319Z,44.21
2016-12-17T10:05:43.659Z,44.48
2016-12-17T10:06:43.678Z,44.28
2016-12-17T10:07:43.703Z,44.38
2016-12-17T10:08:43.430Z,44.38
2016-12-17T10:09:43.469Z,44.19
2016-12-17T10:10:43.782Z,44.38
2016-12-17T10:11:43.811Z,44.38
2016-12-17T10:12:43.532Z,44.38
2016-12-17T10:13:43.868Z,44.48
2016-12-17T10:14:43.890Z,44.38
2016-12-17T10:15:43.619Z,44.48
2016-12-17T10:16:43.644Z,44.48
2016-12-17T10:17:43.972Z,44.19
2016-12-17T10:18:44.004Z,44.28
2016-12-17T10:19:44.044Z,44.49
2016-12-17T10:20:44.081Z,44.11
2016-12-17T10:21:44.114Z,44.11
2016-12-17T10:22:43.822Z,44.09
2016-12-17T10:23:43.847Z,44.09
2016-12-17T10:24:44.180Z,44.19
2016-12-17T10:25:44.224Z,44.09
2016-12-17T10:26:44.230Z,44.19
2016-12-17T10:27:44.279Z,44.19
2016-12-17T10:28:43.992Z,44.09
2016-12-17T10:29:44.321Z,44.09
2016-12-17T10:30:44.041Z,44.19
2016-12-17T10:31:44.069Z,44.19
2016-12-17T10:32:44.091Z,44.09
2016-12-17T10:33:44.434Z,44.09
2016-12-17T10:34:44.459Z,44.09
2016-12-17T10:35:44.192Z,43.99
2016-12-17T10:36:44.207Z,44.09
2016-12-17T10:37:44.538Z,44.09
2016-12-17T10:38:44.295Z,43.99
2016-12-17T10:39:44.600Z,44.19
2016-12-17T10:40:44.322Z,44.19
2016-12-17T10:41:44.649Z,44.19
2016-12-17T10:42:44.676Z,43.99
2016-12-17T10:43:44.714Z,44.09
2016-12-17T10:44:44.419Z,44.09
2016-12-17T10:45:44.447Z,44.19
2016-12-17T10:46:44.477Z,44.28
2016-12-17T10:47:44.505Z,44.28
2016-12-17T10:48:44.842Z,44.19
2016-12-17T10:49:44.567Z,43.9
2016-12-17T10:50:44.895Z,44.09
2016-12-17T10:51:44.912Z,43.99
2016-12-17T10:52:44.641Z,44.19
2016-12-17T10:53:44.978Z,43.9
2016-12-17T10:54:44.695Z,44.19
2016-12-17T10:55:45.024Z,44.09
2016-12-17T10:56:44.759Z,44.09
2016-12-17T10:57:45.092Z,44.28
2016-12-17T10:58:44.805Z,44.19
2016-12-17T10:59:44.847Z,44.28
2016-12-17T11:00:45.158Z,44.28
2016-12-17T11:01:44.888Z,44.09
2016-12-17T11:02:44.911Z,44.28
2016-12-17T11:03:45.241Z,44.09
2016-12-17T11:04:45.274Z,44.19
2016-12-17T11:05:45.290Z,44.38
2016-12-17T11:06:45.327Z,44.09
2016-12-17T11:07:45.364Z,44.38
2016-12-17T11:08:45.376Z,43.99
2016-12-17T11:09:45.113Z,44.09
2016-12-17T11:10:45.430Z,44.09
2016-12-17T11:11:45.481Z,44.38
2016-12-17T11:12:45.186Z,44.38
2016-12-17T11:13:45.517Z,44.19
2016-12-17T11:14:45.241Z,44.28
2016-12-17T11:15:45.587Z,43.99
2016-12-17T11:16:45.607Z,44.09
2016-12-17T11:17:45.625Z,44.19
2016-12-17T11:18:45.356Z,44.48
2016-12-17T11:19:45.381Z,44.28
2016-12-17T11:20:45.701Z,44.28
2016-12-17T11:21:45.730Z,44.09
2016-12-17T11:22:45.764Z,44.28
2016-12-17T11:23:45.492Z,44.19
2016-12-17T11:24:45.512Z,44.38
2016-12-17T11:25:45.541Z,44.09
2016-12-17T11:26:45.566Z,44.28
2016-12-17T11:27:45.596Z,44.09
2016-12-17T11:28:45.615Z,44.28
2016-12-17T11:29:45.952Z,44.28
2016-12-17T11:30:45.978Z,44.28
2016-12-17T11:31:46.019Z,44.19
2016-12-17T11:32:45.730Z,44.28
2016-12-17T11:33:45.755Z,44.28
2016-12-17T11:34:46.092Z,44.09
2016-12-17T11:35:45.813Z,44.38
2016-12-17T11:36:45.841Z,44.28
2016-12-17T11:37:46.162Z,44.09
2016-12-17T11:38:45.891Z,44.28
2016-12-17T11:39:46.235Z,44.38
2016-12-17T11:40:46.248Z,44.19
2016-12-17T11:41:45.972Z,44.09
2016-12-17T11:42:45.998Z,44.28
2016-12-17T11:43:46.338Z,44.19
2016-12-17T11:44:46.059Z,44.28
2016-12-17T11:45:46.393Z,44.09
2016-12-17T11:46:46.113Z,43.99
2016-12-17T11:47:46.449Z,44.19
2016-12-17T11:48:46.161Z,44.28
2016-12-17T11:49:46.499Z,44.09
2016-12-17T11:50:46.525Z,44.38
2016-12-17T11:51:46.260Z,43.99
2016-12-17T11:52:46.577Z,44.28
2016-12-17T11:53:46.697Z,44.38
2016-12-17T11:54:46.331Z,44.28
2016-12-17T11:55:46.679Z,44.28
2016-12-17T11:56:46.684Z,44.28
2016-12-17T11:57:46.720Z,44.19
2016-12-17T11:58:46.741Z,44.09
2016-12-17T11:59:46.787Z,44.09
2016-12-17T12:00:46.799Z,44.31
2016-12-17T12:01:46.826Z,44.11
2016-12-17T12:02:46.552Z,44.49
2016-12-17T12:03:46.577Z,44.31
2016-12-17T12:04:46.597Z,44.19
2016-12-17T12:05:46.627Z,44.69
2016-12-17T12:06:46.655Z,44.09
2016-12-17T12:07:46.684Z,44.11
2016-12-17T12:08:46.713Z,44.21
2016-12-17T12:09:46.746Z,44.4
2016-12-17T12:10:46.763Z,44.11
2016-12-17T12:11:47.103Z,44.11
2016-12-17T12:12:47.124Z,44.11
2016-12-17T12:13:47.156Z,44.49
2016-12-17T12:14:47.186Z,44.49
2016-12-17T12:15:47.220Z,44.49
2016-12-17T12:16:46.935Z,44.4
2016-12-17T12:17:47.264Z,44.49
2016-12-17T12:18:47.284Z,44.11
2016-12-17T12:19:47.009Z,44.49
2016-12-17T12:20:47.341Z,44.19
2016-12-17T12:21:47.074Z,44.49
2016-12-17T12:22:47.090Z,44.11
2016-12-17T12:23:47.424Z,44.49
2016-12-17T12:24:47.448Z,44.21
2016-12-17T12:25:47.489Z,44.49
2016-12-17T12:26:47.511Z,44.49
2016-12-17T12:27:47.543Z,44.31
2016-12-17T12:28:47.559Z,44.21
2016-12-17T12:29:47.625Z,44.49
2016-12-17T12:30:47.313Z,44.4
2016-12-17T12:31:47.645Z,44.21
2016-12-17T12:32:47.370Z,44.4
2016-12-17T12:33:47.686Z,44.49
2016-12-17T12:34:47.419Z,44.4
2016-12-17T12:35:47.452Z,44.21
2016-12-17T12:36:47.480Z,44.4
2016-12-17T12:37:47.509Z,44.49
2016-12-17T12:38:47.530Z,44.31
2016-12-17T12:39:47.561Z,44.59
2016-12-17T12:40:47.587Z,44.69
2016-12-17T12:41:47.922Z,44.4
2016-12-17T12:42:47.945Z,44.49
2016-12-17T12:43:47.661Z,44.31
2016-12-17T12:44:48.004Z,44.11
2016-12-17T12:45:48.039Z,44.4
2016-12-17T12:46:47.748Z,44.11
2016-12-17T12:47:48.088Z,44.02
2016-12-17T12:48:48.109Z,44.31
2016-12-17T12:49:47.834Z,44.4
2016-12-17T12:50:47.863Z,44.4
2016-12-17T12:51:48.199Z,44.4
2016-12-17T12:52:47.914Z,44.4
2016-12-17T12:53:47.944Z,44.31